sensor_id;sensor_type;location;lat;lon;timestamp;pressure;altitude;pressure_sealevel;temperature;humidity
44309;BME280;30022;55.846;37.340;2023-04-19T00:00:58;46564.88;;;-143.51;44.93
44309;BME280;30022;55.846;37.340;2023-04-19T00:03:26;46527.34;;;-143.51;44.83
44309;BME280;30022;55.846;37.340;2023-04-19T00:05:52;46541.19;;;-143.51;44.94
44309;BME280;30022;55.846;37.340;2023-04-19T00:08:23;46545.13;;;-143.51;44.85
44309;BME280;30022;55.846;37.340;2023-04-19T00:10:50;46558.94;;;-143.51;44.80
44309;BME280;30022;55.846;37.340;2023-04-19T00:13:16;46553.03;;;-143.51;44.76
44309;BME280;30022;55.846;37.340;2023-04-19T00:15:41;46515.50;;;-143.51;44.71
44309;BME280;30022;55.846;37.340;2023-04-19T00:18:07;46523.41;;;-143.51;44.80
44309;BME280;30022;55.846;37.340;2023-04-19T00:20:32;46533.28;;;-143.51;44.73
44309;BME280;30022;55.846;37.340;2023-04-19T00:22:58;46543.16;;;-143.51;44.55
44309;BME280;30022;55.846;37.340;2023-04-19T00:25:24;46555.00;;;-143.51;44.60
44309;BME280;30022;55.846;37.340;2023-04-19T00:27:49;46539.19;;;-143.51;44.65
44309;BME280;30022;55.846;37.340;2023-04-19T00:30:15;46543.16;;;-143.51;44.73
44309;BME280;30022;55.846;37.340;2023-04-19T00:32:41;46531.31;;;-143.51;44.85
44309;BME280;30022;55.846;37.340;2023-04-19T00:35:06;46541.19;;;-143.51;44.78
44309;BME280;30022;55.846;37.340;2023-04-19T00:37:32;46539.19;;;-143.51;44.78
44309;BME280;30022;55.846;37.340;2023-04-19T00:39:58;46545.13;;;-143.51;44.78
44309;BME280;30022;55.846;37.340;2023-04-19T00:42:25;46560.91;;;-143.51;44.75
44309;BME280;30022;55.846;37.340;2023-04-19T00:44:50;46549.06;;;-143.51;44.84
44309;BME280;30022;55.846;37.340;2023-04-19T00:47:16;46531.31;;;-143.51;44.81
44309;BME280;30022;55.846;37.340;2023-04-19T00:49:41;46555.00;;;-143.51;44.86
44309;BME280;30022;55.846;37.340;2023-04-19T00:52:08;46551.06;;;-143.51;44.89
44309;BME280;30022;55.846;37.340;2023-04-19T00:54:35;46556.97;;;-143.51;44.86
44309;BME280;30022;55.846;37.340;2023-04-19T00:57:01;46551.06;;;-143.51;44.85
44309;BME280;30022;55.846;37.340;2023-04-19T00:59:28;46551.06;;;-143.51;44.99
44309;BME280;30022;55.846;37.340;2023-04-19T01:17:47;46515.50;;;-143.51;45.06
44309;BME280;30022;55.846;37.340;2023-04-19T01:20:13;46527.34;;;-143.51;45.27
44309;BME280;30022;55.846;37.340;2023-04-19T01:22:41;46517.47;;;-143.51;45.22
44309;BME280;30022;55.846;37.340;2023-04-19T01:25:07;46539.19;;;-143.51;45.34
44309;BME280;30022;55.846;37.340;2023-04-19T01:33:38;46537.22;;;-143.51;45.77
44309;BME280;30022;55.846;37.340;2023-04-19T01:36:08;46543.16;;;-143.51;45.85
44309;BME280;30022;55.846;37.340;2023-04-19T01:38:36;46529.31;;;-143.51;45.92
44309;BME280;30022;55.846;37.340;2023-04-19T01:41:04;46515.50;;;-143.51;45.91
44309;BME280;30022;55.846;37.340;2023-04-19T01:43:33;46527.34;;;-143.51;45.92
44309;BME280;30022;55.846;37.340;2023-04-19T01:46:01;46529.31;;;-143.51;46.02
44309;BME280;30022;55.846;37.340;2023-04-19T01:51:30;46545.13;;;-143.51;46.08
44309;BME280;30022;55.846;37.340;2023-04-19T01:53:57;46555.00;;;-143.51;46.01
44309;BME280;30022;55.846;37.340;2023-04-19T01:56:27;46553.03;;;-143.51;46.06
44309;BME280;30022;55.846;37.340;2023-04-19T01:58:54;46525.38;;;-143.51;46.07
44309;BME280;30022;55.846;37.340;2023-04-19T02:01:21;46527.34;;;-143.51;46.17
44309;BME280;30022;55.846;37.340;2023-04-19T02:03:48;46551.06;;;-143.51;46.36
44309;BME280;30022;55.846;37.340;2023-04-19T02:06:14;46541.19;;;-143.51;46.44
44309;BME280;30022;55.846;37.340;2023-04-19T02:08:42;46535.25;;;-143.51;46.69
44309;BME280;30022;55.846;37.340;2023-04-19T02:11:09;46529.31;;;-143.51;46.62
44309;BME280;30022;55.846;37.340;2023-04-19T02:13:35;46505.63;;;-143.51;46.62
44309;BME280;30022;55.846;37.340;2023-04-19T02:16:01;46555.00;;;-143.51;46.57
44309;BME280;30022;55.846;37.340;2023-04-19T02:18:28;46537.22;;;-143.51;46.66
44309;BME280;30022;55.846;37.340;2023-04-19T02:21:00;46521.44;;;-143.51;46.85
44309;BME280;30022;55.846;37.340;2023-04-19T02:23:26;46523.41;;;-143.51;47.05
44309;BME280;30022;55.846;37.340;2023-04-19T02:25:52;46513.53;;;-143.51;46.94
44309;BME280;30022;55.846;37.340;2023-04-19T02:28:18;46523.41;;;-143.51;46.97
44309;BME280;30022;55.846;37.340;2023-04-19T02:30:45;46555.00;;;-143.51;47.06
44309;BME280;30022;55.846;37.340;2023-04-19T02:33:13;46545.13;;;-143.51;47.09
44309;BME280;30022;55.846;37.340;2023-04-19T02:35:40;46551.06;;;-143.51;47.50
44309;BME280;30022;55.846;37.340;2023-04-19T02:38:09;46515.50;;;-143.51;47.35
44309;BME280;30022;55.846;37.340;2023-04-19T02:40:34;46537.22;;;-143.51;47.47
44309;BME280;30022;55.846;37.340;2023-04-19T02:43:00;46551.06;;;-143.51;47.57
44309;BME280;30022;55.846;37.340;2023-04-19T02:45:28;46551.06;;;-143.51;47.56
44309;BME280;30022;55.846;37.340;2023-04-19T02:47:54;46537.22;;;-143.51;47.63
44309;BME280;30022;55.846;37.340;2023-04-19T02:50:28;46511.56;;;-143.51;47.72
44309;BME280;30022;55.846;37.340;2023-04-19T02:56:29;46533.28;;;-143.51;47.68
44309;BME280;30022;55.846;37.340;2023-04-19T02:59:14;46541.19;;;-143.51;47.68
44309;BME280;30022;55.846;37.340;2023-04-19T03:01:41;46531.31;;;-143.51;47.81
44309;BME280;30022;55.846;37.340;2023-04-19T03:04:06;46537.22;;;-143.51;47.75
44309;BME280;30022;55.846;37.340;2023-04-19T03:06:32;46533.28;;;-143.51;48.04
44309;BME280;30022;55.846;37.340;2023-04-19T03:08:57;46558.94;;;-143.51;47.86
44309;BME280;30022;55.846;37.340;2023-04-19T03:11:27;46539.19;;;-143.51;47.79
44309;BME280;30022;55.846;37.340;2023-04-19T03:13:52;46539.19;;;-143.51;47.88
44309;BME280;30022;55.846;37.340;2023-04-19T03:16:18;46525.38;;;-143.51;47.86
44309;BME280;30022;55.846;37.340;2023-04-19T03:18:43;46545.13;;;-143.51;47.71
44309;BME280;30022;55.846;37.340;2023-04-19T03:21:10;46566.84;;;-143.51;47.79
44309;BME280;30022;55.846;37.340;2023-04-19T03:23:45;46529.31;;;-143.51;47.79
44309;BME280;30022;55.846;37.340;2023-04-19T03:26:12;46525.38;;;-143.51;47.63
44309;BME280;30022;55.846;37.340;2023-04-19T03:28:44;46529.31;;;-143.51;47.58
44309;BME280;30022;55.846;37.340;2023-04-19T03:31:28;46535.25;;;-143.51;47.53
44309;BME280;30022;55.846;37.340;2023-04-19T03:33:54;46519.44;;;-143.51;47.60
44309;BME280;30022;55.846;37.340;2023-04-19T03:36:26;46556.97;;;-143.51;47.55
44309;BME280;30022;55.846;37.340;2023-04-19T03:38:53;46539.19;;;-143.51;47.63
44309;BME280;30022;55.846;37.340;2023-04-19T03:41:22;46527.34;;;-143.51;47.53
44309;BME280;30022;55.846;37.340;2023-04-19T03:43:54;46525.38;;;-143.51;47.52
44309;BME280;30022;55.846;37.340;2023-04-19T03:46:23;46535.25;;;-143.51;47.61
44309;BME280;30022;55.846;37.340;2023-04-19T03:48:48;46529.31;;;-143.51;47.66
44309;BME280;30022;55.846;37.340;2023-04-19T03:51:17;46523.41;;;-143.51;47.61
44309;BME280;30022;55.846;37.340;2023-04-19T03:53:43;46517.47;;;-143.51;47.58
44309;BME280;30022;55.846;37.340;2023-04-19T03:56:09;46541.19;;;-143.51;47.65
44309;BME280;30022;55.846;37.340;2023-04-19T03:58:36;46543.16;;;-143.51;47.68
44309;BME280;30022;55.846;37.340;2023-04-19T04:01:05;46549.06;;;-143.51;47.57
44309;BME280;30022;55.846;37.340;2023-04-19T04:03:33;46527.34;;;-143.51;47.52
44309;BME280;30022;55.846;37.340;2023-04-19T04:06:01;46531.31;;;-143.51;47.49
44309;BME280;30022;55.846;37.340;2023-04-19T04:08:28;46553.03;;;-143.51;47.62
44309;BME280;30022;55.846;37.340;2023-04-19T04:10:53;46539.19;;;-143.51;47.73
44309;BME280;30022;55.846;37.340;2023-04-19T04:13:20;46543.16;;;-143.51;47.71
44309;BME280;30022;55.846;37.340;2023-04-19T04:16:00;46523.41;;;-143.51;47.62
44309;BME280;30022;55.846;37.340;2023-04-19T04:18:26;46555.00;;;-143.51;47.60
44309;BME280;30022;55.846;37.340;2023-04-19T04:20:53;46549.06;;;-143.51;47.47
44309;BME280;30022;55.846;37.340;2023-04-19T04:23:20;46535.25;;;-143.51;47.50
44309;BME280;30022;55.846;37.340;2023-04-19T04:26:02;46549.06;;;-143.51;47.50
44309;BME280;30022;55.846;37.340;2023-04-19T04:28:52;46531.31;;;-143.51;47.34
44309;BME280;30022;55.846;37.340;2023-04-19T04:31:33;46547.09;;;-143.51;47.37
44309;BME280;30022;55.846;37.340;2023-04-19T04:34:01;46570.78;;;-143.51;47.32
44309;BME280;30022;55.846;37.340;2023-04-19T04:36:33;46551.06;;;-143.51;47.26
44309;BME280;30022;55.846;37.340;2023-04-19T04:39:03;46560.91;;;-143.51;47.08
44309;BME280;30022;55.846;37.340;2023-04-19T04:41:43;46553.03;;;-143.51;47.08
44309;BME280;30022;55.846;37.340;2023-04-19T04:44:12;46541.19;;;-143.51;47.18
44309;BME280;30022;55.846;37.340;2023-04-19T04:46:42;46562.91;;;-143.51;47.19
44309;BME280;30022;55.846;37.340;2023-04-19T04:49:17;46558.94;;;-143.51;47.22
44309;BME280;30022;55.846;37.340;2023-04-19T04:51:48;46539.19;;;-143.51;46.93
44309;BME280;30022;55.846;37.340;2023-04-19T04:54:18;46560.91;;;-143.51;46.96
44309;BME280;30022;55.846;37.340;2023-04-19T04:56:46;46570.78;;;-143.51;46.79
44309;BME280;30022;55.846;37.340;2023-04-19T04:59:12;46580.66;;;-143.51;46.96
44309;BME280;30022;55.846;37.340;2023-04-19T05:01:41;46553.03;;;-143.51;46.92
44309;BME280;30022;55.846;37.340;2023-04-19T05:04:07;46558.94;;;-143.51;46.98
44309;BME280;30022;55.846;37.340;2023-04-19T05:06:33;46562.91;;;-143.51;46.93
44309;BME280;30022;55.846;37.340;2023-04-19T05:08:59;46572.78;;;-143.51;46.97
44309;BME280;30022;55.846;37.340;2023-04-19T05:11:30;46574.75;;;-143.51;46.23
44309;BME280;30022;55.846;37.340;2023-04-19T05:13:57;46588.56;;;-143.51;46.02
44309;BME280;30022;55.846;37.340;2023-04-19T05:16:22;46596.47;;;-143.51;46.10
44309;BME280;30022;55.846;37.340;2023-04-19T05:18:48;46584.63;;;-143.51;46.06
44309;BME280;30022;55.846;37.340;2023-04-19T05:21:14;46582.66;;;-143.51;45.61
44309;BME280;30022;55.846;37.340;2023-04-19T05:23:41;46596.47;;;-143.51;45.10
44309;BME280;30022;55.846;37.340;2023-04-19T05:26:07;46556.97;;;-143.51;45.10
44309;BME280;30022;55.846;37.340;2023-04-19T05:28:37;46574.75;;;-143.51;44.72
44309;BME280;30022;55.846;37.340;2023-04-19T05:31:08;46596.47;;;-143.51;44.82
44309;BME280;30022;55.846;37.340;2023-04-19T05:33:42;46600.41;;;-143.51;44.84
44309;BME280;30022;55.846;37.340;2023-04-19T05:36:08;46566.84;;;-143.51;44.84
44309;BME280;30022;55.846;37.340;2023-04-19T05:38:34;46572.78;;;-143.51;44.16
44309;BME280;30022;55.846;37.340;2023-04-19T05:41:01;46596.47;;;-143.51;44.34
44309;BME280;30022;55.846;37.340;2023-04-19T05:43:27;46610.28;;;-143.51;43.14
44309;BME280;30022;55.846;37.340;2023-04-19T05:45:53;46588.56;;;-143.51;43.68
44309;BME280;30022;55.846;37.340;2023-04-19T05:48:19;46612.28;;;-143.51;43.39
44309;BME280;30022;55.846;37.340;2023-04-19T05:51:07;46598.44;;;-143.51;42.66
44309;BME280;30022;55.846;37.340;2023-04-19T05:53:54;46586.59;;;-143.51;42.21
44309;BME280;30022;55.846;37.340;2023-04-19T05:56:19;46590.53;;;-143.51;42.29
44309;BME280;30022;55.846;37.340;2023-04-19T05:58:45;46566.84;;;-143.51;42.32
44309;BME280;30022;55.846;37.340;2023-04-19T06:01:10;46574.75;;;-143.51;42.07
44309;BME280;30022;55.846;37.340;2023-04-19T06:03:36;46590.53;;;-143.51;41.58
44309;BME280;30022;55.846;37.340;2023-04-19T06:06:02;46614.25;;;-143.51;41.53
44309;BME280;30022;55.846;37.340;2023-04-19T06:08:28;46604.38;;;-143.51;41.17
44309;BME280;30022;55.846;37.340;2023-04-19T06:10:53;46604.38;;;-143.51;41.01
44309;BME280;30022;55.846;37.340;2023-04-19T06:13:21;46602.41;;;-143.51;41.05
44309;BME280;30022;55.846;37.340;2023-04-19T06:15:47;46614.25;;;-143.51;41.30
44309;BME280;30022;55.846;37.340;2023-04-19T06:18:13;46635.97;;;-143.51;40.73
44309;BME280;30022;55.846;37.340;2023-04-19T06:20:39;46618.19;;;-143.51;40.21
44309;BME280;30022;55.846;37.340;2023-04-19T06:23:05;46610.28;;;-143.51;40.18
44309;BME280;30022;55.846;37.340;2023-04-19T06:25:30;46620.16;;;-143.51;39.80
44309;BME280;30022;55.846;37.340;2023-04-19T06:27:56;46618.19;;;-143.51;39.74
44309;BME280;30022;55.846;37.340;2023-04-19T06:30:22;46626.09;;;-143.51;38.91
44309;BME280;30022;55.846;37.340;2023-04-19T06:32:47;46622.16;;;-143.51;39.34
44309;BME280;30022;55.846;37.340;2023-04-19T06:35:13;46618.19;;;-143.51;38.85
44309;BME280;30022;55.846;37.340;2023-04-19T06:37:39;46604.38;;;-143.51;38.72
44309;BME280;30022;55.846;37.340;2023-04-19T06:40:05;46606.34;;;-143.51;38.73
44309;BME280;30022;55.846;37.340;2023-04-19T06:42:33;46622.16;;;-143.51;38.67
44309;BME280;30022;55.846;37.340;2023-04-19T06:44:58;46598.44;;;-143.51;38.82
44309;BME280;30022;55.846;37.340;2023-04-19T06:47:24;46622.16;;;-143.51;39.08
44309;BME280;30022;55.846;37.340;2023-04-19T06:49:50;46592.53;;;-143.51;38.66
44309;BME280;30022;55.846;37.340;2023-04-19T06:52:17;46588.56;;;-143.51;38.90
44309;BME280;30022;55.846;37.340;2023-04-19T06:54:46;46608.31;;;-143.51;38.91
44309;BME280;30022;55.846;37.340;2023-04-19T06:57:14;46610.28;;;-143.51;38.75
44309;BME280;30022;55.846;37.340;2023-04-19T06:59:42;46626.09;;;-143.51;38.67
44309;BME280;30022;55.846;37.340;2023-04-19T07:02:12;46608.31;;;-143.51;37.58
44309;BME280;30022;55.846;37.340;2023-04-19T07:04:38;46614.25;;;-143.51;37.46
44309;BME280;30022;55.846;37.340;2023-04-19T07:07:08;46618.19;;;-143.51;37.52
44309;BME280;30022;55.846;37.340;2023-04-19T07:09:34;46608.31;;;-143.51;37.24
44309;BME280;30022;55.846;37.340;2023-04-19T07:12:01;46610.28;;;-143.51;37.41
44309;BME280;30022;55.846;37.340;2023-04-19T07:14:27;46637.94;;;-143.51;37.57
44309;BME280;30022;55.846;37.340;2023-04-19T07:16:53;46614.25;;;-143.51;37.38
44309;BME280;30022;55.846;37.340;2023-04-19T07:19:19;46655.72;;;-143.51;37.09
44309;BME280;30022;55.846;37.340;2023-04-19T07:21:46;46622.16;;;-143.51;36.69
44309;BME280;30022;55.846;37.340;2023-04-19T07:24:12;46626.09;;;-143.51;36.39
44309;BME280;30022;55.846;37.340;2023-04-19T07:29:25;46641.88;;;-143.51;36.37
44309;BME280;30022;55.846;37.340;2023-04-19T07:31:50;46641.88;;;-143.51;36.78
44309;BME280;30022;55.846;37.340;2023-04-19T07:34:20;46606.34;;;-143.51;36.57
44309;BME280;30022;55.846;37.340;2023-04-19T07:36:47;46626.09;;;-143.51;36.50
44309;BME280;30022;55.846;37.340;2023-04-19T07:39:13;46598.44;;;-143.51;36.73
44309;BME280;30022;55.846;37.340;2023-04-19T07:41:39;46620.16;;;-143.51;36.52
44309;BME280;30022;55.846;37.340;2023-04-19T07:44:05;46637.94;;;-143.51;36.63
44309;BME280;30022;55.846;37.340;2023-04-19T07:46:31;46624.13;;;-143.51;37.00
44309;BME280;30022;55.846;37.340;2023-04-19T07:48:56;46600.41;;;-143.51;37.08
44309;BME280;30022;55.846;37.340;2023-04-19T07:51:22;46626.09;;;-143.51;37.41
44309;BME280;30022;55.846;37.340;2023-04-19T07:53:52;46604.38;;;-143.51;37.65
44309;BME280;30022;55.846;37.340;2023-04-19T07:56:20;46628.06;;;-143.51;37.78
44309;BME280;30022;55.846;37.340;2023-04-19T07:58:46;46653.75;;;-143.51;37.85
44309;BME280;30022;55.846;37.340;2023-04-19T08:01:12;46630.03;;;-143.51;37.31
44309;BME280;30022;55.846;37.340;2023-04-19T08:03:38;46639.91;;;-143.51;37.59
44309;BME280;30022;55.846;37.340;2023-04-19T08:06:04;46620.16;;;-143.51;37.55
44309;BME280;30022;55.846;37.340;2023-04-19T08:08:32;46628.06;;;-143.51;37.70
44309;BME280;30022;55.846;37.340;2023-04-19T08:10:59;46616.22;;;-143.51;37.79
44309;BME280;30022;55.846;37.340;2023-04-19T08:13:27;46614.25;;;-143.51;37.70
44309;BME280;30022;55.846;37.340;2023-04-19T08:15:52;46602.41;;;-143.51;37.71
44309;BME280;30022;55.846;37.340;2023-04-19T08:18:18;46600.41;;;-143.51;37.93
44309;BME280;30022;55.846;37.340;2023-04-19T08:20:45;46632.03;;;-143.51;37.78
44309;BME280;30022;55.846;37.340;2023-04-19T08:23:11;46632.03;;;-143.51;38.05
44309;BME280;30022;55.846;37.340;2023-04-19T08:25:37;46635.97;;;-143.51;37.72
44309;BME280;30022;55.846;37.340;2023-04-19T08:28:04;46622.16;;;-143.51;37.35
44309;BME280;30022;55.846;37.340;2023-04-19T08:30:31;46622.16;;;-143.51;37.15
44309;BME280;30022;55.846;37.340;2023-04-19T08:32:57;46614.25;;;-143.51;37.21
44309;BME280;30022;55.846;37.340;2023-04-19T08:35:23;46641.88;;;-143.51;37.34
44309;BME280;30022;55.846;37.340;2023-04-19T08:37:49;46622.16;;;-143.51;36.77
44309;BME280;30022;55.846;37.340;2023-04-19T08:40:15;46596.47;;;-143.51;36.87
44309;BME280;30022;55.846;37.340;2023-04-19T08:42:42;46635.97;;;-143.51;36.97
44309;BME280;30022;55.846;37.340;2023-04-19T08:45:08;46657.69;;;-143.51;36.65
44309;BME280;30022;55.846;37.340;2023-04-19T08:47:36;46586.59;;;-143.51;36.83
44309;BME280;30022;55.846;37.340;2023-04-19T08:50:04;46651.75;;;-143.51;36.99
44309;BME280;30022;55.846;37.340;2023-04-19T08:52:34;46626.09;;;-143.51;37.19
44309;BME280;30022;55.846;37.340;2023-04-19T08:55:01;46614.25;;;-143.51;36.42
44309;BME280;30022;55.846;37.340;2023-04-19T08:57:30;46639.91;;;-143.51;36.78
44309;BME280;30022;55.846;37.340;2023-04-19T08:59:55;46643.88;;;-143.51;36.92
44309;BME280;30022;55.846;37.340;2023-04-19T09:02:22;46641.88;;;-143.51;36.67
44309;BME280;30022;55.846;37.340;2023-04-19T09:04:48;46649.78;;;-143.51;36.60
44309;BME280;30022;55.846;37.340;2023-04-19T09:07:26;46622.16;;;-143.51;36.57
44309;BME280;30022;55.846;37.340;2023-04-19T09:10:05;46657.69;;;-143.51;36.24
44309;BME280;30022;55.846;37.340;2023-04-19T09:12:32;46632.03;;;-143.51;36.05
44309;BME280;30022;55.846;37.340;2023-04-19T09:15:00;46641.88;;;-143.51;35.80
44309;BME280;30022;55.846;37.340;2023-04-19T09:17:29;46624.13;;;-143.51;35.99
44309;BME280;30022;55.846;37.340;2023-04-19T09:19:56;46653.75;;;-143.51;36.31
44309;BME280;30022;55.846;37.340;2023-04-19T09:22:22;46651.75;;;-143.51;35.83
44309;BME280;30022;55.846;37.340;2023-04-19T09:24:48;46649.78;;;-143.51;35.80
44309;BME280;30022;55.846;37.340;2023-04-19T09:27:47;46665.59;;;-143.51;35.79
44309;BME280;30022;55.846;37.340;2023-04-19T09:30:06;46673.50;;;-143.51;35.97
44309;BME280;30022;55.846;37.340;2023-04-19T09:32:48;46643.88;;;-143.51;36.04
44309;BME280;30022;55.846;37.340;2023-04-19T09:35:16;46630.03;;;-143.51;35.74
44309;BME280;30022;55.846;37.340;2023-04-19T09:37:42;46628.06;;;-143.51;35.94
44309;BME280;30022;55.846;37.340;2023-04-19T09:40:23;46649.78;;;-143.51;35.99
44309;BME280;30022;55.846;37.340;2023-04-19T09:42:56;46634.00;;;-143.51;35.57
44309;BME280;30022;55.846;37.340;2023-04-19T09:45:21;46649.78;;;-143.51;36.01
44309;BME280;30022;55.846;37.340;2023-04-19T09:48:03;46634.00;;;-143.51;36.04
44309;BME280;30022;55.846;37.340;2023-04-19T09:50:35;46634.00;;;-143.51;36.03
44309;BME280;30022;55.846;37.340;2023-04-19T09:53:01;46655.72;;;-143.51;35.93
44309;BME280;30022;55.846;37.340;2023-04-19T09:55:27;46657.69;;;-143.51;35.77
44309;BME280;30022;55.846;37.340;2023-04-19T09:57:52;46645.84;;;-143.51;36.07
44309;BME280;30022;55.846;37.340;2023-04-19T10:00:18;46641.88;;;-143.51;35.63
44309;BME280;30022;55.846;37.340;2023-04-19T10:02:46;46655.72;;;-143.51;35.55
44309;BME280;30022;55.846;37.340;2023-04-19T10:05:19;46630.03;;;-143.51;35.66
44309;BME280;30022;55.846;37.340;2023-04-19T10:07:45;46679.41;;;-143.51;35.81
44309;BME280;30022;55.846;37.340;2023-04-19T10:10:11;46641.88;;;-143.51;35.61
44309;BME280;30022;55.846;37.340;2023-04-19T10:12:36;46624.13;;;-143.51;35.43
44309;BME280;30022;55.846;37.340;2023-04-19T10:15:02;46685.34;;;-143.51;35.50
44309;BME280;30022;55.846;37.340;2023-04-19T10:17:30;46641.88;;;-143.51;35.16
44309;BME280;30022;55.846;37.340;2023-04-19T10:20:00;46651.75;;;-143.51;35.50
44309;BME280;30022;55.846;37.340;2023-04-19T10:22:31;46645.84;;;-143.51;35.60
44309;BME280;30022;55.846;37.340;2023-04-19T10:25:11;46649.78;;;-143.51;35.57
44309;BME280;30022;55.846;37.340;2023-04-19T10:27:37;46673.50;;;-143.51;35.37
44309;BME280;30022;55.846;37.340;2023-04-19T10:30:03;46651.75;;;-143.51;35.24
44309;BME280;30022;55.846;37.340;2023-04-19T10:32:39;46647.81;;;-143.51;35.39
44309;BME280;30022;55.846;37.340;2023-04-19T10:38:02;46665.59;;;-143.51;35.61
44309;BME280;30022;55.846;37.340;2023-04-19T10:41:15;46681.38;;;-143.51;35.61
44309;BME280;30022;55.846;37.340;2023-04-19T10:43:19;46681.38;;;-143.51;35.34
44309;BME280;30022;55.846;37.340;2023-04-19T10:45:46;46675.47;;;-143.51;35.58
44309;BME280;30022;55.846;37.340;2023-04-19T10:51:01;46659.66;;;-143.51;35.53
44309;BME280;30022;55.846;37.340;2023-04-19T10:53:42;46665.59;;;-143.51;35.45
44309;BME280;30022;55.846;37.340;2023-04-19T10:56:08;46697.19;;;-143.51;35.13
44309;BME280;30022;55.846;37.340;2023-04-19T10:59:19;46669.53;;;-143.51;35.50
44309;BME280;30022;55.846;37.340;2023-04-19T11:04:04;46681.38;;;-143.51;34.64
44309;BME280;30022;55.846;37.340;2023-04-19T11:06:31;46685.34;;;-143.51;34.69
44309;BME280;30022;55.846;37.340;2023-04-19T11:08:57;46679.41;;;-143.51;34.77
44309;BME280;30022;55.846;37.340;2023-04-19T11:11:23;46679.41;;;-143.51;35.27
44309;BME280;30022;55.846;37.340;2023-04-19T11:13:54;46677.44;;;-143.51;35.34
44309;BME280;30022;55.846;37.340;2023-04-19T11:16:20;46713.00;;;-143.51;34.90
44309;BME280;30022;55.846;37.340;2023-04-19T11:18:46;46667.56;;;-143.51;34.69
44309;BME280;30022;55.846;37.340;2023-04-19T11:21:12;46669.53;;;-143.51;34.24
44309;BME280;30022;55.846;37.340;2023-04-19T11:23:39;46689.28;;;-143.51;34.61
44309;BME280;30022;55.846;37.340;2023-04-19T11:26:05;46659.66;;;-143.51;34.55
44309;BME280;30022;55.846;37.340;2023-04-19T11:28:34;46681.38;;;-143.51;34.32
44309;BME280;30022;55.846;37.340;2023-04-19T11:31:00;46673.50;;;-143.51;34.48
44309;BME280;30022;55.846;37.340;2023-04-19T11:33:25;46705.09;;;-143.51;34.43
44309;BME280;30022;55.846;37.340;2023-04-19T11:35:52;46685.34;;;-143.51;34.08
44309;BME280;30022;55.846;37.340;2023-04-19T11:38:18;46716.94;;;-143.51;34.55
44309;BME280;30022;55.846;37.340;2023-04-19T11:40:44;46693.25;;;-143.51;34.06
44309;BME280;30022;55.846;37.340;2023-04-19T11:43:09;46685.34;;;-143.51;34.35
44309;BME280;30022;55.846;37.340;2023-04-19T11:45:36;46711.00;;;-143.51;33.76
44309;BME280;30022;55.846;37.340;2023-04-19T11:48:06;46734.72;;;-143.51;33.95
44309;BME280;30022;55.846;37.340;2023-04-19T11:50:38;46695.22;;;-143.51;33.98
44309;BME280;30022;55.846;37.340;2023-04-19T11:53:14;46716.94;;;-143.51;34.27
44309;BME280;30022;55.846;37.340;2023-04-19T11:55:44;46697.19;;;-143.51;33.25
44309;BME280;30022;55.846;37.340;2023-04-19T11:58:31;46689.28;;;-143.51;33.22
44309;BME280;30022;55.846;37.340;2023-04-19T12:01:00;46679.41;;;-143.51;33.38
44309;BME280;30022;55.846;37.340;2023-04-19T12:03:26;46711.00;;;-143.51;33.38
44309;BME280;30022;55.846;37.340;2023-04-19T12:05:56;46669.53;;;-143.51;33.29
44309;BME280;30022;55.846;37.340;2023-04-19T12:08:29;46726.81;;;-143.51;33.05
44309;BME280;30022;55.846;37.340;2023-04-19T12:10:56;46699.16;;;-143.51;33.06
44309;BME280;30022;55.846;37.340;2023-04-19T12:13:23;46699.16;;;-143.51;33.38
44309;BME280;30022;55.846;37.340;2023-04-19T12:15:49;46705.09;;;-143.51;33.33
44309;BME280;30022;55.846;37.340;2023-04-19T12:18:15;46709.03;;;-143.51;32.95
44309;BME280;30022;55.846;37.340;2023-04-19T12:20:47;46701.13;;;-143.51;33.43
44309;BME280;30022;55.846;37.340;2023-04-19T12:23:13;46722.88;;;-143.51;33.35
44309;BME280;30022;55.846;37.340;2023-04-19T12:25:40;46714.97;;;-143.51;33.11
44309;BME280;30022;55.846;37.340;2023-04-19T12:28:06;46730.75;;;-143.51;33.00
44309;BME280;30022;55.846;37.340;2023-04-19T12:30:31;46705.09;;;-143.51;32.68
44309;BME280;30022;55.846;37.340;2023-04-19T12:32:58;46713.00;;;-143.51;32.08
44309;BME280;30022;55.846;37.340;2023-04-19T12:35:24;46681.38;;;-143.51;32.30
44309;BME280;30022;55.846;37.340;2023-04-19T12:37:53;46687.31;;;-143.51;32.86
44309;BME280;30022;55.846;37.340;2023-04-19T12:40:19;46705.09;;;-143.51;32.65
44309;BME280;30022;55.846;37.340;2023-04-19T12:42:45;46716.94;;;-143.51;32.36
44309;BME280;30022;55.846;37.340;2023-04-19T12:45:11;46714.97;;;-143.51;32.14
44309;BME280;30022;55.846;37.340;2023-04-19T12:47:37;46714.97;;;-143.51;32.23
44309;BME280;30022;55.846;37.340;2023-04-19T12:50:03;46728.78;;;-143.51;32.22
44309;BME280;30022;55.846;37.340;2023-04-19T12:52:28;46705.09;;;-143.51;31.96
44309;BME280;30022;55.846;37.340;2023-04-19T12:54:54;46742.59;;;-143.51;32.09
44309;BME280;30022;55.846;37.340;2023-04-19T12:57:20;46724.84;;;-143.51;31.16
44309;BME280;30022;55.846;37.340;2023-04-19T12:59:45;46754.47;;;-143.51;31.35
44309;BME280;30022;55.846;37.340;2023-04-19T13:02:11;46728.78;;;-143.51;31.04
44309;BME280;30022;55.846;37.340;2023-04-19T13:04:36;46691.25;;;-143.51;31.19
44309;BME280;30022;55.846;37.340;2023-04-19T13:07:02;46724.84;;;-143.51;31.14
44309;BME280;30022;55.846;37.340;2023-04-19T13:09:27;46726.81;;;-143.51;30.96
44309;BME280;30022;55.846;37.340;2023-04-19T13:11:53;46714.97;;;-143.51;30.82
44309;BME280;30022;55.846;37.340;2023-04-19T13:14:33;46734.72;;;-143.51;30.93